Durham, United Kingdom
Current Conditions -  °F | °C
As of 10:50 PM on Monday 20 Oct 2014 (Local Time) from EGNT Reporting Station
Few Clouds Few Clouds  
Wind Chill: 54°   Ceiling: Unl
Heat Index: 54°   Visibility: 6mi
Dew Point: 48°   Wind: 8mph
Humidity: 82%   Direction: 200°SSW
Pressure: 29.56"   Gusts: NA
Location:  54.77°N, 1.58°W
Report Text: EGNT 202150Z 20007KT 160V240 9999 FEW025 12/09 Q1001
Loading
Personal Weather Stations






























Interactive Weather Map
Tropical Storm Tracking
New forecast layout! Learn more

10-Day Weather Forecast

Advertisements
Track Severe Weather on mobile